Archival Weather

Doha Intl Airport

Doha Intl Airport, Qatar (OTBD)

Report from: Thursday, September 21, 2023 11:30 PM +03
Current time: Saturday, March 2, 2024 12:03 PM +03

Current weather – Weather history – Daily summaries
Weather forecast

Temperature35.0°C (95.0°F)
Heat index35.7°C (96.3°F)
Dew point17.0°C (62.6°F)
Winds 4 kts (2.1 m/s, 4.6 mph) Vrb
Winds variableWinds variable from West-Northwest (290°) to North (350°)
Clouds Sky clear
Altimeter29.65 in.Hg (1004 mB)
Relative humidity35 %
Density altitude2,845 ft. (867 m)
Remarks Fully automated report
Ceiling and visibility OK
No significant changes expected in the next two hours
Flight conditions Visual Meteorological Conditions
Raw dataOTBD 212030Z AUTO 32004KT 290V350 CAVOK 35/17 Q1004 NOSIG
An error has occurred. This application may no longer respond until reloaded. Reload 🗙